Time;durP1;ratioP1;P1;durP2;ratioP2;P2;SDS_P1;SDS_P2;PMS_P1;PMS_P2;Temp;Humidity;BMP_temperature;BMP_pressure;BME280_temperature;BME280_humidity;BME280_pressure;Samples;Min_cycle;Max_cycle;Signal;HPM_P1;HPM_P2
2023/02/04 00:02:40;;;;;;;1.90;0.88;;;;;;;;;;10508718;28;20051;-77
2023/02/04 00:07:44;;;;;;;1.55;1.08;;;;;;;;;;10520891;28;20038;-78
2023/02/04 00:12:47;;;;;;;2.38;1.30;;;;;;;;;;10534003;28;20056;-78
2023/02/04 00:17:49;;;;;;;2.80;1.58;;;;;;;;;;10520789;28;20106;-79
2023/02/04 00:22:53;;;;;;;1.95;1.38;;;;;;;;;;10510958;28;20074;-78
2023/02/04 00:27:56;;;;;;;0.88;0.77;;;;;;;;;;10526166;28;20039;-78
2023/02/04 00:32:58;;;;;;;2.90;1.55;;;;;;;;;;10527130;28;20048;-80
2023/02/04 00:38:03;;;;;;;1.85;1.13;;;;;;;;;;10522985;28;20049;-80
2023/02/04 00:43:05;;;;;;;2.13;1.10;;;;;;;;;;10521497;28;20578;-80
2023/02/04 00:48:08;;;;;;;1.75;1.23;;;;;;;;;;10523230;28;20109;-80
2023/02/04 00:53:12;;;;;;;1.65;1.00;;;;;;;;;;10526972;28;20109;-81
2023/02/04 00:58:14;;;;;;;1.35;0.98;;;;;;;;;;10521584;28;20093;-81
2023/02/04 01:03:17;;;;;;;2.42;0.98;;;;;;;;;;10524165;28;20041;-82
2023/02/04 01:08:21;;;;;;;1.52;0.98;;;;;;;;;;10523572;28;20512;-80
2023/02/04 01:13:23;;;;;;;1.98;0.73;;;;;;;;;;10522242;28;20135;-80
2023/02/04 01:18:26;;;;;;;0.70;0.60;;;;;;;;;;10527118;28;20090;-79
2023/02/04 01:23:30;;;;;;;0.70;0.60;;;;;;;;;;10528458;28;20036;-80
2023/02/04 01:28:33;;;;;;;1.75;0.75;;;;;;;;;;10525861;28;20032;-79
2023/02/04 01:33:36;;;;;;;1.52;0.90;;;;;;;;;;10508814;28;20040;-80
2023/02/04 01:38:40;;;;;;;2.30;0.50;;;;;;;;;;10526997;28;20090;-80
2023/02/04 01:43:42;;;;;;;2.67;1.00;;;;;;;;;;10518338;28;20071;-80
2023/02/04 01:48:45;;;;;;;2.60;1.30;;;;;;;;;;10526980;28;20287;-77
2023/02/04 01:53:49;;;;;;;0.70;0.50;;;;;;;;;;10521408;28;20347;-78
2023/02/04 01:58:52;;;;;;;2.78;0.98;;;;;;;;;;10521363;28;20048;-77
2023/02/04 02:03:55;;;;;;;10.03;1.30;;;;;;;;;;10528763;28;20056;-78
2023/02/04 02:08:59;;;;;;;4.88;1.83;;;;;;;;;;10526288;28;20028;-78
2023/02/04 02:14:02;;;;;;;2.28;0.80;;;;;;;;;;10529599;28;20079;-77
2023/02/04 02:19:07;;;;;;;3.67;1.25;;;;;;;;;;10546880;27;20477;-78
2023/02/04 02:24:27;;;;;;;2.90;1.05;;;;;;;;;;10525813;28;20484;-78
2023/02/04 02:29:29;;;;;;;11.05;1.38;;;;;;;;;;10520811;28;20094;-77
2023/02/04 02:34:33;;;;;;;1.90;1.00;;;;;;;;;;10536399;28;20462;-77
2023/02/04 02:39:37;;;;;;;6.65;1.45;;;;;;;;;;10528543;28;20051;-77
2023/02/04 02:44:40;;;;;;;9.00;1.70;;;;;;;;;;10532153;28;20040;-78
2023/02/04 02:49:42;;;;;;;6.35;0.98;;;;;;;;;;10531621;28;20473;-80
2023/02/04 02:54:47;;;;;;;1.35;0.80;;;;;;;;;;10530189;28;20093;-79
2023/02/04 02:59:49;;;;;;;;;;;;;;;;;;10526045;28;20047;-79
2023/02/04 03:04:54;;;;;;;3.85;2.05;;;;;;;;;;10536762;28;20293;-78
2023/02/04 03:09:58;;;;;;;9.40;2.67;;;;;;;;;;10524323;28;20503;-78
2023/02/04 03:15:00;;;;;;;10.95;2.63;;;;;;;;;;10527054;28;20055;-78
2023/02/04 03:20:04;;;;;;;7.28;1.98;;;;;;;;;;10539312;28;20035;-80
2023/02/04 03:25:08;;;;;;;11.93;2.50;;;;;;;;;;10519938;28;20039;-80
2023/02/04 03:30:10;;;;;;;;;;;;;;;;;;10528455;28;20394;-80
2023/02/04 03:35:13;;;;;;;6.13;1.90;;;;;;;;;;10519960;28;20351;-79
2023/02/04 03:40:17;;;;;;;13.03;2.47;;;;;;;;;;10522520;28;20090;-79
2023/02/04 03:45:20;;;;;;;6.70;2.38;;;;;;;;;;10523165;28;20056;-79
2023/02/04 03:50:23;;;;;;;9.30;2.10;;;;;;;;;;10528204;28;20048;-79
2023/02/04 03:55:27;;;;;;;13.05;2.65;;;;;;;;;;10524260;28;20059;-78
2023/02/04 04:00:30;;;;;;;5.75;1.90;;;;;;;;;;10532260;28;20048;-78
2023/02/04 04:05:34;;;;;;;5.30;1.53;;;;;;;;;;10529315;28;20066;-81
2023/02/04 04:10:38;;;;;;;7.32;2.00;;;;;;;;;;10531372;28;20066;-78
2023/02/04 04:15:43;;;;;;;5.50;1.60;;;;;;;;;;10527527;28;20092;-76
2023/02/04 04:20:45;;;;;;;8.13;1.80;;;;;;;;;;10533732;28;20130;-80
2023/02/04 04:25:49;;;;;;;10.13;2.00;;;;;;;;;;10526958;28;20106;-80
2023/02/04 04:30:52;;;;;;;6.10;1.85;;;;;;;;;;10537112;28;20081;-77
2023/02/04 04:35:55;;;;;;;8.23;2.30;;;;;;;;;;10529152;28;20123;-79
2023/02/04 04:40:59;;;;;;;7.03;1.70;;;;;;;;;;10521040;28;20028;-76
2023/02/04 04:46:01;;;;;;;8.43;2.63;;;;;;;;;;10524134;28;20051;-76
2023/02/04 04:51:04;;;;;;;11.87;2.57;;;;;;;;;;10529858;28;20551;-76
2023/02/04 04:56:08;;;;;;;10.43;2.10;;;;;;;;;;10522317;28;20040;-76
2023/02/04 05:01:10;;;;;;;10.35;1.92;;;;;;;;;;10527792;28;20044;-77
2023/02/04 05:06:13;;;;;;;14.00;2.57;;;;;;;;;;10523282;28;20072;-78
2023/02/04 05:11:17;;;;;;;9.53;1.70;;;;;;;;;;10533622;28;20460;-78
2023/02/04 05:16:20;;;;;;;6.80;1.45;;;;;;;;;;10528463;28;20051;-78
2023/02/04 05:21:23;;;;;;;8.73;2.60;;;;;;;;;;10522380;28;20040;-78
2023/02/04 05:26:27;;;;;;;10.20;1.80;;;;;;;;;;10522415;28;20035;-78
2023/02/04 05:31:32;;;;;;;6.33;1.60;;;;;;;;;;10521663;28;20089;-80
2023/02/04 05:36:35;;;;;;;5.20;1.50;;;;;;;;;;10521321;28;20082;-79
2023/02/04 05:41:39;;;;;;;8.57;1.85;;;;;;;;;;10516567;28;20396;-77
2023/02/04 05:46:42;;;;;;;4.78;2.10;;;;;;;;;;10526814;28;20225;-77
2023/02/04 05:51:44;;;;;;;9.15;2.05;;;;;;;;;;10521740;28;20111;-79
2023/02/04 05:56:50;;;;;;;14.40;1.97;;;;;;;;;;10522459;28;20036;-79
2023/02/04 06:01:53;;;;;;;7.63;1.55;;;;;;;;;;10515388;28;20114;-78
2023/02/04 06:06:55;;;;;;;7.33;1.73;;;;;;;;;;10505199;28;20417;-77
2023/02/04 06:11:59;;;;;;;3.70;1.65;;;;;;;;;;10523179;28;20055;-76
2023/02/04 06:17:02;;;;;;;4.70;2.35;;;;;;;;;;10525572;28;20441;-77
2023/02/04 06:22:05;;;;;;;11.35;2.40;;;;;;;;;;10524685;28;20055;-79
2023/02/04 06:27:08;;;;;;;6.80;2.00;;;;;;;;;;10518411;28;20097;-77
2023/02/04 06:32:11;;;;;;;6.93;2.15;;;;;;;;;;10524569;28;20047;-77
2023/02/04 06:37:15;;;;;;;10.95;2.15;;;;;;;;;;10518343;28;20040;-77
2023/02/04 06:42:19;;;;;;;3.50;1.38;;;;;;;;;;10522042;28;20036;-78
2023/02/04 06:47:22;;;;;;;6.05;1.67;;;;;;;;;;10531907;28;20481;-78
2023/02/04 06:52:25;;;;;;;5.85;1.00;;;;;;;;;;10522713;28;20063;-77
2023/02/04 06:57:29;;;;;;;4.50;1.60;;;;;;;;;;10526288;28;20047;-78
2023/02/04 07:02:31;;;;;;;5.32;1.15;;;;;;;;;;10533946;28;20046;-78
2023/02/04 07:07:34;;;;;;;5.28;1.08;;;;;;;;;;10527201;28;20050;-75
2023/02/04 07:12:38;;;;;;;6.55;1.40;;;;;;;;;;10529824;28;20048;-76
2023/02/04 07:17:41;;;;;;;7.63;1.70;;;;;;;;;;10526293;28;20044;-76
2023/02/04 07:22:44;;;;;;;7.10;1.92;;;;;;;;;;10530976;28;20040;-77
2023/02/04 07:27:48;;;;;;;2.80;1.10;;;;;;;;;;10535746;28;20132;-77
2023/02/04 07:32:51;;;;;;;9.25;1.88;;;;;;;;;;10537455;28;20509;-76
2023/02/04 07:37:53;;;;;;;4.40;1.50;;;;;;;;;;10505070;28;20722;-78
2023/02/04 07:42:57;;;;;;;7.45;1.52;;;;;;;;;;10523673;28;20048;-78
2023/02/04 07:48:00;;;;;;;7.03;2.25;;;;;;;;;;10530712;28;20059;-78
2023/02/04 07:53:03;;;;;;;3.40;1.58;;;;;;;;;;10517445;28;20072;-78
2023/02/04 07:58:07;;;;;;;6.07;1.58;;;;;;;;;;10525483;28;20048;-78
2023/02/04 08:03:09;;;;;;;4.80;1.70;;;;;;;;;;10524356;28;20035;-78
2023/02/04 08:08:12;;;;;;;6.43;2.10;;;;;;;;;;10531480;28;20036;-78
2023/02/04 08:13:16;;;;;;;4.97;1.75;;;;;;;;;;10518709;28;20043;-79
2023/02/04 08:18:18;;;;;;;6.90;1.80;;;;;;;;;;10524061;28;20497;-78
2023/02/04 08:23:21;;;;;;;9.95;2.15;;;;;;;;;;10524915;28;20401;-79
2023/02/04 08:28:26;;;;;;;14.35;3.90;;;;;;;;;;10524785;28;20063;-79
2023/02/04 08:33:29;;;;;;;6.82;2.17;;;;;;;;;;10501955;28;20462;-80
2023/02/04 08:38:31;;;;;;;4.82;1.50;;;;;;;;;;10516739;28;20047;-79
2023/02/04 08:43:36;;;;;;;7.25;2.00;;;;;;;;;;10526659;28;20032;-79
2023/02/04 08:48:39;;;;;;;4.35;1.73;;;;;;;;;;10517113;28;20113;-79
2023/02/04 08:53:42;;;;;;;5.97;1.52;;;;;;;;;;10523404;28;20031;-79
2023/02/04 08:58:46;;;;;;;5.57;1.95;;;;;;;;;;10526986;28;20129;-79
2023/02/04 09:03:49;;;;;;;7.75;2.20;;;;;;;;;;10520507;28;20390;-81
2023/02/04 09:08:52;;;;;;;6.27;1.90;;;;;;;;;;10530037;28;20047;-80
2023/02/04 09:13:56;;;;;;;15.00;2.60;;;;;;;;;;10526851;28;20032;-81
2023/02/04 09:19:00;;;;;;;8.10;2.10;;;;;;;;;;10501827;28;20093;-81
2023/02/04 09:24:03;;;;;;;6.32;1.50;;;;;;;;;;10525484;28;20101;-81
2023/02/04 09:29:07;;;;;;;6.18;1.60;;;;;;;;;;10525378;28;20419;-83
2023/02/04 09:34:10;;;;;;;5.53;1.42;;;;;;;;;;10527694;28;20119;-81
2023/02/04 09:39:12;;;;;;;9.55;1.40;;;;;;;;;;10524801;28;20182;-82
2023/02/04 09:44:18;;;;;;;7.78;1.98;;;;;;;;;;10527922;28;20119;-82
2023/02/04 09:49:21;;;;;;;6.25;1.65;;;;;;;;;;10522400;28;20085;-82
2023/02/04 09:54:24;;;;;;;9.93;1.80;;;;;;;;;;10513717;28;20137;-82
2023/02/04 09:59:29;;;;;;;12.43;1.58;;;;;;;;;;10513755;28;20043;-82
2023/02/04 10:04:31;;;;;;;;;;;;;;;;;;10522966;28;20045;-80
2023/02/04 10:09:34;;;;;;;10.77;1.98;;;;;;;;;;10528237;28;19928;-81
2023/02/04 10:14:39;;;;;;;9.98;1.83;;;;;;;;;;10517383;28;20131;-81
2023/02/04 10:19:41;;;;;;;9.45;1.92;;;;;;;;;;10522693;28;20040;-81
2023/02/04 10:24:44;;;;;;;2.70;1.00;;;;;;;;;;10520596;28;20040;-81
2023/02/04 10:29:57;;;;;;;2.13;1.00;;;;;;;;;;10512968;28;20038;-80
2023/02/04 10:35:00;;;;;;;3.40;1.10;;;;;;;;;;10527666;28;20064;-81
2023/02/04 10:40:03;;;;;;;1.95;0.73;;;;;;;;;;10529671;28;20643;-82
2023/02/04 10:45:21;;;;;;;4.45;0.95;;;;;;;;;;10507248;28;20044;-81
2023/02/04 10:50:24;;;;;;;2.03;1.13;;;;;;;;;;10523642;28;20040;-82
2023/02/04 10:55:27;;;;;;;3.03;0.97;;;;;;;;;;10531260;28;20505;-81
2023/02/04 11:00:31;;;;;;;3.70;1.00;;;;;;;;;;10524464;28;20309;-81
2023/02/04 11:05:35;;;;;;;2.88;1.20;;;;;;;;;;10524378;28;20048;-80
2023/02/04 11:10:38;;;;;;;4.20;1.50;;;;;;;;;;10520029;28;20407;-81
2023/02/04 11:15:46;;;;;;;2.47;0.98;;;;;;;;;;10523017;28;20048;-81
2023/02/04 11:20:53;;;;;;;1.08;0.65;;;;;;;;;;10537286;28;20500;-81
2023/02/04 11:26:01;;;;;;;7.25;1.52;;;;;;;;;;10524497;28;20481;-82
2023/02/04 11:31:13;;;;;;;4.70;1.10;;;;;;;;;;10534753;28;20438;-81
2023/02/04 11:36:16;;;;;;;6.10;0.90;;;;;;;;;;10531286;28;20043;-81
2023/02/04 11:41:29;;;;;;;3.07;1.00;;;;;;;;;;10522839;28;20063;-81
2023/02/04 11:46:33;;;;;;;2.00;1.00;;;;;;;;;;10518290;28;20040;-81
2023/02/04 11:51:36;;;;;;;1.48;1.08;;;;;;;;;;10523701;28;20040;-81
2023/02/04 11:56:39;;;;;;;3.55;1.92;;;;;;;;;;10515401;28;20036;-81
2023/02/04 12:01:43;;;;;;;3.13;1.48;;;;;;;;;;10520876;28;20052;-82
2023/02/04 12:06:45;;;;;;;;;;;;;;;;;;10529190;28;20391;-82
2023/02/04 12:11:51;;;;;;;3.08;2.38;;;;;;;;;;10523970;28;20114;-82
2023/02/04 12:16:56;;;;;;;2.25;1.17;;;;;;;;;;10526608;28;20043;-82
2023/02/04 12:21:58;;;;;;;6.00;1.80;;;;;;;;;;10526812;28;20101;-82
2023/02/04 12:27:01;;;;;;;1.35;1.00;;;;;;;;;;10521674;28;20067;-81
2023/02/04 12:32:05;;;;;;;4.03;1.30;;;;;;;;;;10520161;28;20044;-82
2023/02/04 12:37:08;;;;;;;2.63;1.15;;;;;;;;;;10522192;28;20121;-82
2023/02/04 12:42:11;;;;;;;2.33;1.10;;;;;;;;;;10524973;28;20044;-82
2023/02/04 12:47:15;;;;;;;2.42;1.20;;;;;;;;;;10527736;28;20408;-82
2023/02/04 12:52:17;;;;;;;;;;;;;;;;;;10527853;28;20379;-81
2023/02/04 12:57:20;;;;;;;1.42;0.93;;;;;;;;;;10525101;28;19932;-81
2023/02/04 13:02:24;;;;;;;5.38;1.67;;;;;;;;;;10527653;28;20046;-81
2023/02/04 13:07:27;;;;;;;2.30;1.13;;;;;;;;;;10527167;28;20214;-81
2023/02/04 13:12:29;;;;;;;3.80;1.60;;;;;;;;;;10525236;28;20044;-81
2023/02/04 13:17:33;;;;;;;2.20;1.15;;;;;;;;;;10516854;28;20355;-81
2023/02/04 13:22:37;;;;;;;3.20;1.27;;;;;;;;;;10527754;28;20496;-81
2023/02/04 13:27:39;;;;;;;3.87;1.67;;;;;;;;;;10522463;28;20062;-81
2023/02/04 13:32:44;;;;;;;1.90;1.33;;;;;;;;;;10524282;28;20031;-81
2023/02/04 13:37:47;;;;;;;2.15;1.40;;;;;;;;;;10521690;28;20079;-81
2023/02/04 13:42:49;;;;;;;5.97;1.00;;;;;;;;;;10534367;28;20040;-81
2023/02/04 13:47:54;;;;;;;1.75;1.20;;;;;;;;;;10520627;28;20784;-81
2023/02/04 13:52:56;;;;;;;1.20;0.90;;;;;;;;;;10526930;28;21584;-81
2023/02/04 13:57:59;;;;;;;1.58;1.00;;;;;;;;;;10506683;28;20517;-81
2023/02/04 14:03:04;;;;;;;5.63;1.17;;;;;;;;;;10539551;28;20032;-81
2023/02/04 14:08:08;;;;;;;4.43;1.30;;;;;;;;;;10529086;28;20040;-81
2023/02/04 14:13:11;;;;;;;2.05;1.02;;;;;;;;;;10531620;28;20024;-81
2023/02/04 14:18:16;;;;;;;1.50;0.95;;;;;;;;;;10533867;28;20451;-79
2023/02/04 14:23:19;;;;;;;2.70;1.00;;;;;;;;;;10533327;28;20527;-80
2023/02/04 14:28:21;;;;;;;1.15;0.90;;;;;;;;;;10527603;28;20040;-81
2023/02/04 14:33:25;;;;;;;2.05;1.23;;;;;;;;;;10530240;28;20161;-80
2023/02/04 14:38:29;;;;;;;;;;;;;;;;;;10536584;28;20447;-80
2023/02/04 14:43:35;;;;;;;1.67;1.15;;;;;;;;;;10525460;28;19923;-81
2023/02/04 14:48:40;;;;;;;1.45;1.00;;;;;;;;;;10527597;28;20299;-80
2023/02/04 14:53:42;;;;;;;2.08;1.17;;;;;;;;;;10535623;28;20146;-80
2023/02/04 14:58:50;;;;;;;2.40;1.42;;;;;;;;;;10525339;28;20047;-80
2023/02/04 15:03:54;;;;;;;1.08;0.80;;;;;;;;;;10514132;28;20044;-80
2023/02/04 15:08:56;;;;;;;1.23;0.82;;;;;;;;;;10536128;28;20040;-81
2023/02/04 15:13:59;;;;;;;1.73;1.10;;;;;;;;;;10532134;28;20043;-80
2023/02/04 15:19:03;;;;;;;4.60;2.50;;;;;;;;;;10530738;28;20043;-80
2023/02/04 15:24:06;;;;;;;3.80;1.40;;;;;;;;;;10532428;28;20040;-81
2023/02/04 15:29:08;;;;;;;1.23;1.00;;;;;;;;;;10528048;28;20044;-82
2023/02/04 15:34:13;;;;;;;4.57;1.35;;;;;;;;;;10534002;28;20043;-82
2023/02/04 15:39:15;;;;;;;2.63;1.60;;;;;;;;;;10520238;28;20035;-81
2023/02/04 15:44:20;;;;;;;4.55;1.83;;;;;;;;;;10527905;28;20044;-81
2023/02/04 15:49:24;;;;;;;5.05;1.40;;;;;;;;;;10542067;28;20357;-80
2023/02/04 15:54:27;;;;;;;3.83;2.15;;;;;;;;;;10530907;28;20509;-81
2023/02/04 15:59:29;;;;;;;2.83;1.30;;;;;;;;;;10527921;28;20036;-80
2023/02/04 16:04:34;;;;;;;2.05;1.27;;;;;;;;;;10531770;28;20485;-81
2023/02/04 16:09:36;;;;;;;;;;;;;;;;;;10529250;28;20127;-81
2023/02/04 16:14:42;;;;;;;3.72;1.63;;;;;;;;;;10560995;28;19958;-81
2023/02/04 16:20:11;;;;;;;4.18;1.63;;;;;;;;;;10566021;28;20048;-81
2023/02/04 16:25:29;;;;;;;2.10;1.38;;;;;;;;;;10561951;28;20051;-81
2023/02/04 16:30:41;;;;;;;4.10;1.50;;;;;;;;;;10575360;28;20050;-81
2023/02/04 16:36:03;;;;;;;4.50;1.67;;;;;;;;;;10594053;27;20103;-82
2023/02/04 16:41:14;;;;;;;5.32;1.70;;;;;;;;;;10557119;28;20165;-81
2023/02/04 16:46:33;;;;;;;8.85;3.28;;;;;;;;;;10573418;28;20040;-83
2023/02/04 16:51:44;;;;;;;5.70;1.90;;;;;;;;;;10546882;28;20059;-80
2023/02/04 16:56:54;;;;;;;3.67;1.92;;;;;;;;;;10526819;28;20040;-81
2023/02/04 17:02:03;;;;;;;4.35;2.05;;;;;;;;;;10512337;28;20043;-82
2023/02/04 17:07:27;;;;;;;5.80;2.03;;;;;;;;;;10519670;28;20051;-82
2023/02/04 17:12:47;;;;;;;2.08;1.70;;;;;;;;;;10517488;28;20123;-83
2023/02/04 17:18:00;;;;;;;18.47;5.93;;;;;;;;;;10536962;28;20113;-81
2023/02/04 17:23:27;;;;;;;4.38;1.80;;;;;;;;;;10546998;28;20048;-81
2023/02/04 17:28:41;;;;;;;4.22;1.90;;;;;;;;;;10545748;28;20308;-79
2023/02/04 17:33:48;;;;;;;2.17;1.67;;;;;;;;;;10534693;28;20417;-81
2023/02/04 17:39:06;;;;;;;6.57;3.35;;;;;;;;;;10496406;28;20029;-80
2023/02/04 17:44:29;;;;;;;4.10;1.77;;;;;;;;;;10518366;28;20037;-82
2023/02/04 17:49:37;;;;;;;2.90;1.70;;;;;;;;;;10522654;28;20043;-81
2023/02/04 17:54:49;;;;;;;5.10;2.20;;;;;;;;;;10488772;28;20048;-81
2023/02/04 18:05:55;;;;;;;4.37;1.43;;;;;;;;;;10519438;28;19920;-82
2023/02/04 18:11:25;;;;;;;3.83;1.90;;;;;;;;;;10523288;28;20056;-82
2023/02/04 18:16:46;;;;;;;3.20;2.03;;;;;;;;;;10519864;28;20036;-82
2023/02/04 18:21:56;;;;;;;1.93;1.50;;;;;;;;;;10526861;28;20055;-80
2023/02/04 18:27:13;;;;;;;3.33;1.70;;;;;;;;;;10515766;28;20046;-79
2023/02/04 18:32:33;;;;;;;3.83;1.60;;;;;;;;;;10512706;28;20517;-78
2023/02/04 18:37:48;;;;;;;3.70;1.47;;;;;;;;;;10524845;28;20121;-81
2023/02/04 18:43:37;;;;;;;10.17;3.73;;;;;;;;;;10519108;28;20036;-79
2023/02/04 18:49:03;;;;;;;2.00;1.30;;;;;;;;;;10515026;28;20420;-79
2023/02/04 18:54:35;;;;;;;2.67;1.37;;;;;;;;;;10537190;28;20169;-79
2023/02/04 18:59:57;;;;;;;2.10;1.53;;;;;;;;;;10515376;28;20047;-81
2023/02/04 19:05:05;;;;;;;3.20;1.50;;;;;;;;;;10509823;28;20089;-79
2023/02/04 19:10:46;;;;;;;5.30;1.83;;;;;;;;;;10505680;28;20048;-80
2023/02/04 19:16:01;;;;;;;8.03;1.90;;;;;;;;;;10529066;28;20552;-80
2023/02/04 19:21:24;;;;;;;40.85;12.45;;;;;;;;;;10531089;28;20040;-80
2023/02/04 19:26:43;;;;;;;4.40;2.27;;;;;;;;;;10521582;28;20056;-81
2023/02/04 19:31:50;;;;;;;6.60;2.27;;;;;;;;;;10522109;28;20083;-79
2023/02/04 19:36:56;;;;;;;10.57;4.07;;;;;;;;;;10520260;28;20458;-80
2023/02/04 19:42:24;;;;;;;7.33;2.23;;;;;;;;;;10524041;28;20039;-82
2023/02/04 19:47:34;;;;;;;7.10;2.70;;;;;;;;;;10526385;28;20045;-79
2023/02/04 19:52:47;;;;;;;4.33;2.37;;;;;;;;;;10532202;28;20150;-79
2023/02/04 19:57:57;;;;;;;5.50;1.83;;;;;;;;;;10521359;28;20055;-80
2023/02/04 20:03:15;;;;;;;6.13;2.28;;;;;;;;;;10528101;28;20052;-79
2023/02/04 20:08:36;;;;;;;5.32;2.28;;;;;;;;;;10507379;28;20133;-80
2023/02/04 20:13:53;;;;;;;6.30;2.27;;;;;;;;;;10521975;28;20032;-82
2023/02/04 20:18:58;;;;;;;6.63;2.43;;;;;;;;;;10519555;28;20043;-81
2023/02/04 20:29:48;;;;;;;8.13;3.53;;;;;;;;;;10515921;28;20060;-82
2023/02/04 20:35:30;;;;;;;6.13;2.70;;;;;;;;;;10506096;28;20101;-81
2023/02/04 20:40:43;;;;;;;7.03;2.77;;;;;;;;;;10513273;28;20070;-79
2023/02/04 20:46:10;;;;;;;6.43;2.87;;;;;;;;;;10518535;28;20391;-80
2023/02/04 20:51:26;;;;;;;7.70;2.73;;;;;;;;;;10513191;28;20035;-79
2023/02/04 20:56:39;;;;;;;5.20;2.63;;;;;;;;;;10520576;28;20040;-79
2023/02/04 21:01:48;;;;;;;5.27;2.17;;;;;;;;;;10525351;28;20067;-79
2023/02/04 21:07:12;;;;;;;5.13;2.53;;;;;;;;;;10505395;28;20039;-80
2023/02/04 21:12:24;;;;;;;5.50;2.40;;;;;;;;;;10519706;28;20040;-80
2023/02/04 21:17:36;;;;;;;5.73;2.27;;;;;;;;;;10498751;28;20382;-79
2023/02/04 21:22:49;;;;;;;4.53;2.17;;;;;;;;;;10511750;28;20047;-81
2023/02/04 21:27:58;;;;;;;7.30;3.40;;;;;;;;;;10527437;28;20729;-79
2023/02/04 21:33:08;;;;;;;5.03;2.13;;;;;;;;;;10485223;28;20112;-80
2023/02/04 21:38:27;;;;;;;4.90;2.20;;;;;;;;;;10508470;28;20050;-79
2023/02/04 21:43:32;;;;;;;6.73;2.47;;;;;;;;;;10506533;28;20472;-80
2023/02/04 21:48:38;;;;;;;7.27;2.30;;;;;;;;;;10499766;28;20032;-82
2023/02/04 21:53:44;;;;;;;3.97;2.30;;;;;;;;;;10500952;28;20040;-78
2023/02/04 21:58:49;;;;;;;5.13;2.20;;;;;;;;;;10523325;28;20051;-79
2023/02/04 22:03:55;;;;;;;5.00;2.50;;;;;;;;;;10523349;28;20111;-79
2023/02/04 22:09:02;;;;;;;3.33;2.10;;;;;;;;;;10515056;28;20044;-77
2023/02/04 22:14:15;;;;;;;5.00;2.07;;;;;;;;;;10515184;28;20071;-79
2023/02/04 22:19:22;;;;;;;4.07;1.90;;;;;;;;;;10503121;28;20060;-76
2023/02/04 22:24:39;;;;;;;4.27;2.30;;;;;;;;;;10508834;28;20131;-77
2023/02/04 22:29:46;;;;;;;4.90;2.15;;;;;;;;;;10527437;28;20093;-78
2023/02/04 22:34:54;;;;;;;4.03;2.10;;;;;;;;;;10514586;28;20109;-77
2023/02/04 22:40:09;;;;;;;4.17;2.13;;;;;;;;;;10546658;27;20401;-76
2023/02/04 22:45:34;;;;;;;5.67;2.40;;;;;;;;;;10526870;28;20122;-76
2023/02/04 22:50:51;;;;;;;13.83;5.03;;;;;;;;;;10523137;28;20291;-76
2023/02/04 22:56:01;;;;;;;28.67;12.40;;;;;;;;;;10510374;28;20035;-75
2023/02/04 23:01:19;;;;;;;31.57;11.73;;;;;;;;;;10528597;28;20386;-76
2023/02/04 23:06:42;;;;;;;22.20;9.53;;;;;;;;;;10532095;28;20481;-79
2023/02/04 23:12:11;;;;;;;6.17;3.43;;;;;;;;;;10539200;27;20043;-79
2023/02/04 23:17:36;;;;;;;5.33;2.60;;;;;;;;;;10501747;28;20044;-78
2023/02/04 23:22:45;;;;;;;5.23;2.30;;;;;;;;;;10508092;28;20268;-78
2023/02/04 23:27:48;;;;;;;39.80;15.13;;;;;;;;;;10525907;28;20031;-78
2023/02/04 23:32:59;;;;;;;55.40;19.77;;;;;;;;;;10519812;28;20127;-77
2023/02/04 23:38:21;;;;;;;7.60;2.70;;;;;;;;;;10529487;28;20160;-79
2023/02/04 23:43:31;;;;;;;6.07;2.77;;;;;;;;;;10525500;28;20459;-78
2023/02/04 23:48:43;;;;;;;8.87;3.80;;;;;;;;;;10512056;28;20048;-78
2023/02/04 23:53:52;;;;;;;20.93;8.70;;;;;;;;;;10525177;28;20418;-78
2023/02/04 23:59:06;;;;;;;21.03;7.63;;;;;;;;;;10528366;28;20040;-79
